sensor_id;sensor_type;location;lat;lon;timestamp;pressure;altitude;pressure_sealevel;temperature;humidity
28683;BME280;15862;43.062;25.626;2022-07-23T00:00:17;99994.66;;;18.05;100.00
28683;BME280;15862;43.062;25.626;2022-07-23T00:02:43;99995.00;;;18.10;100.00
28683;BME280;15862;43.062;25.626;2022-07-23T00:05:09;100004.97;;;18.06;100.00
28683;BME280;15862;43.062;25.626;2022-07-23T00:07:35;100002.59;;;17.95;100.00
28683;BME280;15862;43.062;25.626;2022-07-23T00:10:01;99996.78;;;18.01;100.00
28683;BME280;15862;43.062;25.626;2022-07-23T00:12:27;100000.38;;;18.00;100.00
28683;BME280;15862;43.062;25.626;2022-07-23T00:14:52;99995.44;;;17.97;100.00
28683;BME280;15862;43.062;25.626;2022-07-23T00:17:18;99988.25;;;17.99;100.00
28683;BME280;15862;43.062;25.626;2022-07-23T00:19:43;99995.13;;;18.00;100.00
28683;BME280;15862;43.062;25.626;2022-07-23T00:22:09;99991.03;;;17.98;99.53
28683;BME280;15862;43.062;25.626;2022-07-23T00:24:34;99991.84;;;17.98;100.00
28683;BME280;15862;43.062;25.626;2022-07-23T00:27:00;99974.13;;;17.84;100.00
28683;BME280;15862;43.062;25.626;2022-07-23T00:29:25;99994.44;;;17.90;100.00
28683;BME280;15862;43.062;25.626;2022-07-23T00:31:51;99985.59;;;17.91;100.00
28683;BME280;15862;43.062;25.626;2022-07-23T00:34:16;99987.03;;;17.86;100.00
28683;BME280;15862;43.062;25.626;2022-07-23T00:36:41;99984.38;;;17.78;100.00
28683;BME280;15862;43.062;25.626;2022-07-23T00:39:07;99986.50;;;17.74;100.00
28683;BME280;15862;43.062;25.626;2022-07-23T00:41:32;99978.53;;;17.76;100.00
28683;BME280;15862;43.062;25.626;2022-07-23T00:44:23;99983.13;;;17.82;100.00
28683;BME280;15862;43.062;25.626;2022-07-23T00:46:51;99970.63;;;17.68;100.00
28683;BME280;15862;43.062;25.626;2022-07-23T00:49:19;99986.81;;;17.71;100.00
28683;BME280;15862;43.062;25.626;2022-07-23T00:51:45;99986.00;;;17.71;100.00
28683;BME280;15862;43.062;25.626;2022-07-23T00:54:11;99969.75;;;17.60;100.00
28683;BME280;15862;43.062;25.626;2022-07-23T00:56:37;99986.78;;;17.63;100.00
28683;BME280;15862;43.062;25.626;2022-07-23T00:59:02;99984.50;;;17.68;100.00
28683;BME280;15862;43.062;25.626;2022-07-23T01:01:28;99981.56;;;17.63;100.00
28683;BME280;15862;43.062;25.626;2022-07-23T01:03:53;99988.03;;;17.60;100.00
28683;BME280;15862;43.062;25.626;2022-07-23T01:06:19;99984.78;;;17.58;100.00
28683;BME280;15862;43.062;25.626;2022-07-23T01:08:44;99982.47;;;17.55;100.00
28683;BME280;15862;43.062;25.626;2022-07-23T01:11:11;99987.69;;;17.55;100.00
28683;BME280;15862;43.062;25.626;2022-07-23T01:13:41;99980.81;;;17.54;100.00
28683;BME280;15862;43.062;25.626;2022-07-23T01:16:07;99986.06;;;17.54;100.00
28683;BME280;15862;43.062;25.626;2022-07-23T01:18:32;99988.66;;;17.54;100.00
28683;BME280;15862;43.062;25.626;2022-07-23T01:20:58;99983.09;;;17.49;100.00
28683;BME280;15862;43.062;25.626;2022-07-23T01:23:23;99986.16;;;17.44;100.00
28683;BME280;15862;43.062;25.626;2022-07-23T01:25:52;99987.31;;;17.42;100.00
28683;BME280;15862;43.062;25.626;2022-07-23T01:28:18;99985.66;;;17.41;100.00
28683;BME280;15862;43.062;25.626;2022-07-23T01:30:44;99973.88;;;17.37;100.00
28683;BME280;15862;43.062;25.626;2022-07-23T01:33:10;99973.22;;;17.35;100.00
28683;BME280;15862;43.062;25.626;2022-07-23T01:35:35;99975.50;;;17.38;100.00
28683;BME280;15862;43.062;25.626;2022-07-23T01:38:01;99983.28;;;17.30;100.00
28683;BME280;15862;43.062;25.626;2022-07-23T01:40:26;99980.28;;;17.25;100.00
28683;BME280;15862;43.062;25.626;2022-07-23T01:42:52;99984.19;;;17.21;100.00
28683;BME280;15862;43.062;25.626;2022-07-23T01:45:17;99967.78;;;17.11;100.00
28683;BME280;15862;43.062;25.626;2022-07-23T01:47:43;99983.50;;;17.19;100.00
28683;BME280;15862;43.062;25.626;2022-07-23T01:50:09;99978.13;;;17.20;100.00
28683;BME280;15862;43.062;25.626;2022-07-23T01:52:34;99979.25;;;17.18;100.00
28683;BME280;15862;43.062;25.626;2022-07-23T01:55:00;99982.19;;;17.15;100.00
28683;BME280;15862;43.062;25.626;2022-07-23T01:57:25;99987.25;;;17.16;100.00
28683;BME280;15862;43.062;25.626;2022-07-23T01:59:51;99980.38;;;17.15;100.00
28683;BME280;15862;43.062;25.626;2022-07-23T02:02:16;99965.78;;;17.05;100.00
28683;BME280;15862;43.062;25.626;2022-07-23T02:04:41;99990.59;;;17.09;100.00
28683;BME280;15862;43.062;25.626;2022-07-23T02:07:07;99959.19;;;16.93;100.00
28683;BME280;15862;43.062;25.626;2022-07-23T02:09:33;99988.16;;;17.07;100.00
28683;BME280;15862;43.062;25.626;2022-07-23T02:11:58;99996.75;;;17.00;100.00
28683;BME280;15862;43.062;25.626;2022-07-23T02:14:25;99988.53;;;16.95;100.00
28683;BME280;15862;43.062;25.626;2022-07-23T02:16:51;99973.47;;;16.89;100.00
28683;BME280;15862;43.062;25.626;2022-07-23T02:19:16;99982.66;;;16.93;100.00
28683;BME280;15862;43.062;25.626;2022-07-23T02:21:42;99983.63;;;16.92;100.00
28683;BME280;15862;43.062;25.626;2022-07-23T02:24:07;99987.22;;;16.91;100.00
28683;BME280;15862;43.062;25.626;2022-07-23T02:26:33;99990.19;;;16.96;100.00
28683;BME280;15862;43.062;25.626;2022-07-23T02:29:00;99997.84;;;16.97;100.00
28683;BME280;15862;43.062;25.626;2022-07-23T02:31:28;99994.88;;;16.92;100.00
28683;BME280;15862;43.062;25.626;2022-07-23T02:33:53;99994.13;;;16.83;100.00
28683;BME280;15862;43.062;25.626;2022-07-23T02:36:19;100002.63;;;16.84;100.00
28683;BME280;15862;43.062;25.626;2022-07-23T02:38:44;99999.34;;;16.83;100.00
28683;BME280;15862;43.062;25.626;2022-07-23T02:41:10;100003.91;;;16.81;100.00
28683;BME280;15862;43.062;25.626;2022-07-23T02:43:35;100007.03;;;16.84;100.00
28683;BME280;15862;43.062;25.626;2022-07-23T02:46:00;100005.41;;;16.83;100.00
28683;BME280;15862;43.062;25.626;2022-07-23T02:48:26;100004.44;;;16.84;100.00
28683;BME280;15862;43.062;25.626;2022-07-23T02:50:51;100008.69;;;16.85;100.00
28683;BME280;15862;43.062;25.626;2022-07-23T02:53:17;100013.16;;;16.75;100.00
28683;BME280;15862;43.062;25.626;2022-07-23T02:55:43;99997.06;;;16.62;100.00
28683;BME280;15862;43.062;25.626;2022-07-23T02:58:08;100003.31;;;16.69;100.00
28683;BME280;15862;43.062;25.626;2022-07-23T03:00:34;100020.97;;;16.75;100.00
28683;BME280;15862;43.062;25.626;2022-07-23T03:02:59;100013.22;;;16.66;100.00
28683;BME280;15862;43.062;25.626;2022-07-23T03:05:25;100023.34;;;16.69;100.00
28683;BME280;15862;43.062;25.626;2022-07-23T03:07:50;100026.13;;;16.67;100.00
28683;BME280;15862;43.062;25.626;2022-07-23T03:10:16;100024.19;;;16.69;100.00
28683;BME280;15862;43.062;25.626;2022-07-23T03:12:41;100031.69;;;16.72;100.00
28683;BME280;15862;43.062;25.626;2022-07-23T03:15:07;100034.31;;;16.72;100.00
28683;BME280;15862;43.062;25.626;2022-07-23T03:17:33;100038.72;;;16.72;100.00
28683;BME280;15862;43.062;25.626;2022-07-23T03:19:58;100040.56;;;16.79;100.00
28683;BME280;15862;43.062;25.626;2022-07-23T03:22:24;100037.16;;;16.79;100.00
28683;BME280;15862;43.062;25.626;2022-07-23T03:24:49;100037.00;;;16.80;100.00
28683;BME280;15862;43.062;25.626;2022-07-23T03:27:26;100040.81;;;16.85;100.00
28683;BME280;15862;43.062;25.626;2022-07-23T03:29:52;100038.44;;;16.92;100.00
28683;BME280;15862;43.062;25.626;2022-07-23T03:32:19;100032.91;;;16.95;100.00
28683;BME280;15862;43.062;25.626;2022-07-23T03:34:44;100036.44;;;17.03;100.00
28683;BME280;15862;43.062;25.626;2022-07-23T03:37:10;100041.78;;;17.02;100.00
28683;BME280;15862;43.062;25.626;2022-07-23T03:39:35;100046.41;;;17.08;100.00
28683;BME280;15862;43.062;25.626;2022-07-23T03:42:01;100046.34;;;17.17;100.00
28683;BME280;15862;43.062;25.626;2022-07-23T03:44:26;100047.38;;;17.24;100.00
28683;BME280;15862;43.062;25.626;2022-07-23T03:46:52;100049.75;;;17.35;100.00
28683;BME280;15862;43.062;25.626;2022-07-23T03:49:17;100046.41;;;17.43;100.00
28683;BME280;15862;43.062;25.626;2022-07-23T03:51:43;100038.19;;;17.38;100.00
28683;BME280;15862;43.062;25.626;2022-07-23T03:54:09;100051.75;;;17.59;100.00
28683;BME280;15862;43.062;25.626;2022-07-23T03:56:34;100056.38;;;17.64;100.00
28683;BME280;15862;43.062;25.626;2022-07-23T03:59:00;100049.09;;;17.76;100.00
28683;BME280;15862;43.062;25.626;2022-07-23T04:01:25;100057.50;;;17.87;100.00
28683;BME280;15862;43.062;25.626;2022-07-23T04:03:51;100053.41;;;17.93;100.00
28683;BME280;15862;43.062;25.626;2022-07-23T04:06:16;100063.75;;;18.02;100.00
28683;BME280;15862;43.062;25.626;2022-07-23T04:08:42;100058.56;;;18.10;100.00
28683;BME280;15862;43.062;25.626;2022-07-23T04:11:07;100055.72;;;18.21;100.00
28683;BME280;15862;43.062;25.626;2022-07-23T04:13:32;100063.78;;;18.36;100.00
28683;BME280;15862;43.062;25.626;2022-07-23T04:15:58;100054.19;;;18.44;100.00
28683;BME280;15862;43.062;25.626;2022-07-23T04:18:24;100072.06;;;18.56;96.76
28683;BME280;15862;43.062;25.626;2022-07-23T04:20:51;100070.78;;;18.68;92.72
28683;BME280;15862;43.062;25.626;2022-07-23T04:23:17;100065.09;;;18.81;90.76
28683;BME280;15862;43.062;25.626;2022-07-23T04:25:43;100069.22;;;18.99;88.63
28683;BME280;15862;43.062;25.626;2022-07-23T04:28:08;100041.72;;;19.03;86.67
28683;BME280;15862;43.062;25.626;2022-07-23T04:30:34;100061.88;;;19.34;85.48
28683;BME280;15862;43.062;25.626;2022-07-23T04:32:59;100063.53;;;19.51;85.93
28683;BME280;15862;43.062;25.626;2022-07-23T04:35:25;100057.94;;;19.62;86.79
28683;BME280;15862;43.062;25.626;2022-07-23T04:37:50;100063.81;;;19.88;80.92
28683;BME280;15862;43.062;25.626;2022-07-23T04:40:16;100056.72;;;20.04;78.72
28683;BME280;15862;43.062;25.626;2022-07-23T04:42:41;100071.09;;;20.24;77.97
28683;BME280;15862;43.062;25.626;2022-07-23T04:45:07;100062.16;;;20.41;76.41
28683;BME280;15862;43.062;25.626;2022-07-23T04:47:33;100065.25;;;20.53;75.36
28683;BME280;15862;43.062;25.626;2022-07-23T04:49:58;100069.47;;;20.62;73.39
28683;BME280;15862;43.062;25.626;2022-07-23T04:52:24;100071.88;;;20.79;72.77
28683;BME280;15862;43.062;25.626;2022-07-23T04:54:50;100067.69;;;20.92;71.40
28683;BME280;15862;43.062;25.626;2022-07-23T04:57:15;100073.47;;;21.10;70.19
28683;BME280;15862;43.062;25.626;2022-07-23T04:59:41;100075.75;;;21.13;71.16
28683;BME280;15862;43.062;25.626;2022-07-23T05:02:06;100069.25;;;21.24;71.59
28683;BME280;15862;43.062;25.626;2022-07-23T05:04:31;100062.19;;;21.47;69.93
28683;BME280;15862;43.062;25.626;2022-07-23T05:06:58;100080.19;;;21.57;69.51
28683;BME280;15862;43.062;25.626;2022-07-23T05:09:23;100070.31;;;21.74;66.44
28683;BME280;15862;43.062;25.626;2022-07-23T05:11:49;100075.34;;;21.98;66.12
28683;BME280;15862;43.062;25.626;2022-07-23T05:14:15;100079.75;;;22.34;66.31
28683;BME280;15862;43.062;25.626;2022-07-23T05:16:40;100077.34;;;23.03;62.71
28683;BME280;15862;43.062;25.626;2022-07-23T05:19:06;100083.34;;;23.81;59.42
28683;BME280;15862;43.062;25.626;2022-07-23T05:21:31;100081.41;;;23.95;57.65
28683;BME280;15862;43.062;25.626;2022-07-23T05:23:57;100076.59;;;24.05;55.62
28683;BME280;15862;43.062;25.626;2022-07-23T05:26:22;100074.19;;;24.10;54.92
28683;BME280;15862;43.062;25.626;2022-07-23T05:28:48;100076.13;;;23.95;54.69
28683;BME280;15862;43.062;25.626;2022-07-23T05:31:13;100068.09;;;24.10;54.75
28683;BME280;15862;43.062;25.626;2022-07-23T05:33:39;100071.31;;;24.05;54.82
28683;BME280;15862;43.062;25.626;2022-07-23T05:36:05;100070.19;;;24.27;56.62
28683;BME280;15862;43.062;25.626;2022-07-23T05:38:32;100064.16;;;24.33;58.02
28683;BME280;15862;43.062;25.626;2022-07-23T05:40:57;100065.97;;;24.26;56.52
28683;BME280;15862;43.062;25.626;2022-07-23T05:43:23;100062.53;;;24.39;56.76
28683;BME280;15862;43.062;25.626;2022-07-23T05:45:48;100069.56;;;24.53;56.76
28683;BME280;15862;43.062;25.626;2022-07-23T05:48:14;100068.84;;;24.78;57.44
28683;BME280;15862;43.062;25.626;2022-07-23T05:50:39;100066.47;;;25.02;56.23
28683;BME280;15862;43.062;25.626;2022-07-23T05:53:05;100057.97;;;25.13;55.32
28683;BME280;15862;43.062;25.626;2022-07-23T05:55:30;100057.19;;;25.32;54.34
28683;BME280;15862;43.062;25.626;2022-07-23T05:58:00;100060.81;;;25.38;54.32
28683;BME280;15862;43.062;25.626;2022-07-23T06:00:26;100049.66;;;25.36;53.75
28683;BME280;15862;43.062;25.626;2022-07-23T06:02:52;100071.84;;;25.48;54.36
28683;BME280;15862;43.062;25.626;2022-07-23T06:05:18;100063.69;;;25.88;52.16
28683;BME280;15862;43.062;25.626;2022-07-23T06:07:43;100059.84;;;26.60;50.18
28683;BME280;15862;43.062;25.626;2022-07-23T06:10:09;100052.56;;;27.72;46.85
28683;BME280;15862;43.062;25.626;2022-07-23T06:12:35;100064.84;;;28.98;44.35
28683;BME280;15862;43.062;25.626;2022-07-23T06:15:02;100058.94;;;30.28;41.61
28683;BME280;15862;43.062;25.626;2022-07-23T06:17:27;100061.88;;;31.22;39.41
28683;BME280;15862;43.062;25.626;2022-07-23T06:19:53;100051.72;;;32.44;37.95
28683;BME280;15862;43.062;25.626;2022-07-23T06:22:19;100043.53;;;33.03;36.75
28683;BME280;15862;43.062;25.626;2022-07-23T06:24:44;100051.09;;;33.32;35.38
28683;BME280;15862;43.062;25.626;2022-07-23T06:27:10;100059.22;;;33.78;35.24
28683;BME280;15862;43.062;25.626;2022-07-23T06:29:35;100055.97;;;34.89;32.63
28683;BME280;15862;43.062;25.626;2022-07-23T06:32:01;100040.91;;;34.63;32.20
28683;BME280;15862;43.062;25.626;2022-07-23T06:34:26;100043.16;;;35.20;31.78
28683;BME280;15862;43.062;25.626;2022-07-23T06:36:52;100053.91;;;35.80;30.97
28683;BME280;15862;43.062;25.626;2022-07-23T06:39:17;100058.47;;;35.89;31.20
28683;BME280;15862;43.062;25.626;2022-07-23T06:41:43;100052.47;;;36.90;29.86
28683;BME280;15862;43.062;25.626;2022-07-23T06:44:08;100053.50;;;37.33;28.78
28683;BME280;15862;43.062;25.626;2022-07-23T06:46:34;100047.94;;;37.52;28.21
28683;BME280;15862;43.062;25.626;2022-07-23T06:48:59;100039.75;;;37.91;28.56
28683;BME280;15862;43.062;25.626;2022-07-23T06:51:25;100043.84;;;38.77;27.36
28683;BME280;15862;43.062;25.626;2022-07-23T06:53:50;100042.16;;;37.92;28.47
28683;BME280;15862;43.062;25.626;2022-07-23T06:56:15;100036.91;;;37.49;29.18
28683;BME280;15862;43.062;25.626;2022-07-23T06:58:41;100032.78;;;37.56;29.30
28683;BME280;15862;43.062;25.626;2022-07-23T07:01:06;100034.66;;;38.54;28.17
28683;BME280;15862;43.062;25.626;2022-07-23T07:03:32;100034.56;;;39.51;27.29
28683;BME280;15862;43.062;25.626;2022-07-23T07:05:57;100003.84;;;38.55;27.60
28683;BME280;15862;43.062;25.626;2022-07-23T07:08:23;100021.97;;;38.55;28.48
28683;BME280;15862;43.062;25.626;2022-07-23T07:10:49;100027.88;;;38.94;27.75
28683;BME280;15862;43.062;25.626;2022-07-23T07:13:15;100030.03;;;39.28;27.33
28683;BME280;15862;43.062;25.626;2022-07-23T07:15:41;100021.81;;;40.10;26.43
28683;BME280;15862;43.062;25.626;2022-07-23T07:18:06;100016.91;;;40.74;25.08
28683;BME280;15862;43.062;25.626;2022-07-23T07:20:32;100000.13;;;39.97;25.61
28683;BME280;15862;43.062;25.626;2022-07-23T07:22:57;100015.91;;;41.06;25.65
28683;BME280;15862;43.062;25.626;2022-07-23T07:25:23;100013.06;;;41.33;24.94
28683;BME280;15862;43.062;25.626;2022-07-23T07:27:48;100016.16;;;41.18;25.26
28683;BME280;15862;43.062;25.626;2022-07-23T07:30:14;100023.06;;;41.24;25.24
28683;BME280;15862;43.062;25.626;2022-07-23T07:32:39;100018.03;;;41.91;24.14
28683;BME280;15862;43.062;25.626;2022-07-23T07:35:05;100007.31;;;42.42;23.35
28683;BME280;15862;43.062;25.626;2022-07-23T07:37:31;100005.59;;;42.97;23.54
28683;BME280;15862;43.062;25.626;2022-07-23T07:39:57;100007.91;;;42.22;22.55
28683;BME280;15862;43.062;25.626;2022-07-23T07:42:22;100001.69;;;42.30;22.79
28683;BME280;15862;43.062;25.626;2022-07-23T07:44:48;99996.47;;;42.93;22.46
28683;BME280;15862;43.062;25.626;2022-07-23T07:47:13;99994.34;;;43.32;21.89
28683;BME280;15862;43.062;25.626;2022-07-23T07:49:41;99991.41;;;44.00;21.44
28683;BME280;15862;43.062;25.626;2022-07-23T07:52:06;99980.28;;;44.33;21.09
28683;BME280;15862;43.062;25.626;2022-07-23T07:54:32;99984.09;;;44.61;20.96
28683;BME280;15862;43.062;25.626;2022-07-23T07:56:57;99980.97;;;44.91;20.39
28683;BME280;15862;43.062;25.626;2022-07-23T07:59:23;99974.09;;;45.18;20.19
28683;BME280;15862;43.062;25.626;2022-07-23T08:01:48;99973.50;;;45.68;19.97
28683;BME280;15862;43.062;25.626;2022-07-23T08:04:14;99972.53;;;46.09;20.16
28683;BME280;15862;43.062;25.626;2022-07-23T08:06:39;99975.44;;;45.44;20.38
28683;BME280;15862;43.062;25.626;2022-07-23T08:09:05;99970.34;;;45.66;19.72
28683;BME280;15862;43.062;25.626;2022-07-23T08:11:30;99972.53;;;45.85;19.62
28683;BME280;15862;43.062;25.626;2022-07-23T08:13:56;99976.75;;;45.70;19.91
28683;BME280;15862;43.062;25.626;2022-07-23T08:16:21;99968.81;;;46.41;18.98
28683;BME280;15862;43.062;25.626;2022-07-23T08:18:47;99967.69;;;46.81;19.31
28683;BME280;15862;43.062;25.626;2022-07-23T08:21:12;99968.47;;;47.09;18.38
28683;BME280;15862;43.062;25.626;2022-07-23T08:23:38;99958.72;;;46.96;18.34
28683;BME280;15862;43.062;25.626;2022-07-23T08:26:03;99966.25;;;47.57;18.62
28683;BME280;15862;43.062;25.626;2022-07-23T08:28:29;99949.00;;;46.71;19.07
28683;BME280;15862;43.062;25.626;2022-07-23T08:30:58;99953.63;;;45.80;20.22
28683;BME280;15862;43.062;25.626;2022-07-23T08:33:23;99948.84;;;45.77;19.81
28683;BME280;15862;43.062;25.626;2022-07-23T08:35:49;99946.97;;;46.17;19.85
28683;BME280;15862;43.062;25.626;2022-07-23T08:38:17;99941.31;;;46.10;19.49
28683;BME280;15862;43.062;25.626;2022-07-23T08:40:53;99938.09;;;45.60;19.97
28683;BME280;15862;43.062;25.626;2022-07-23T08:43:21;99923.66;;;45.95;19.70
28683;BME280;15862;43.062;25.626;2022-07-23T08:45:49;99942.81;;;46.47;19.54
28683;BME280;15862;43.062;25.626;2022-07-23T08:48:17;99944.44;;;46.47;19.23
28683;BME280;15862;43.062;25.626;2022-07-23T08:50:46;99943.75;;;45.19;20.79
28683;BME280;15862;43.062;25.626;2022-07-23T08:53:11;99932.38;;;46.01;20.00
28683;BME280;15862;43.062;25.626;2022-07-23T08:55:37;99942.84;;;46.35;19.73
28683;BME280;15862;43.062;25.626;2022-07-23T08:58:03;99938.47;;;45.02;19.83
28683;BME280;15862;43.062;25.626;2022-07-23T09:00:29;99930.72;;;45.04;20.15
28683;BME280;15862;43.062;25.626;2022-07-23T09:02:55;99944.28;;;45.81;19.22
28683;BME280;15862;43.062;25.626;2022-07-23T09:05:20;99949.84;;;45.04;19.78
28683;BME280;15862;43.062;25.626;2022-07-23T09:08:11;99940.50;;;45.85;19.55
28683;BME280;15862;43.062;25.626;2022-07-23T09:13:32;99942.00;;;46.07;19.63
28683;BME280;15862;43.062;25.626;2022-07-23T09:16:02;99935.19;;;47.22;18.71
28683;BME280;15862;43.062;25.626;2022-07-23T09:18:35;99930.34;;;48.12;17.37
28683;BME280;15862;43.062;25.626;2022-07-23T09:21:07;99940.84;;;47.75;16.96
28683;BME280;15862;43.062;25.626;2022-07-23T09:24:01;99930.91;;;48.02;17.49
28683;BME280;15862;43.062;25.626;2022-07-23T09:29:02;99928.19;;;48.20;17.36
28683;BME280;15862;43.062;25.626;2022-07-23T09:36:38;99920.34;;;47.54;17.22
28683;BME280;15862;43.062;25.626;2022-07-23T09:39:05;99922.88;;;46.73;18.17
28683;BME280;15862;43.062;25.626;2022-07-23T09:41:42;99917.25;;;47.55;17.04
28683;BME280;15862;43.062;25.626;2022-07-23T09:44:13;99912.72;;;47.32;17.76
28683;BME280;15862;43.062;25.626;2022-07-23T09:46:39;99916.81;;;46.80;17.60
28683;BME280;15862;43.062;25.626;2022-07-23T09:49:17;99916.34;;;47.36;17.57
28683;BME280;15862;43.062;25.626;2022-07-23T09:51:46;99921.22;;;47.89;17.51
28683;BME280;15862;43.062;25.626;2022-07-23T09:54:34;99904.59;;;47.20;17.30
28683;BME280;15862;43.062;25.626;2022-07-23T09:57:10;99903.25;;;46.99;17.62
28683;BME280;15862;43.062;25.626;2022-07-23T09:59:43;99894.13;;;46.13;17.55
28683;BME280;15862;43.062;25.626;2022-07-23T10:02:11;99898.56;;;45.93;17.92
28683;BME280;15862;43.062;25.626;2022-07-23T10:04:40;99884.03;;;46.29;17.50
28683;BME280;15862;43.062;25.626;2022-07-23T10:07:08;99895.00;;;46.56;17.62
28683;BME280;15862;43.062;25.626;2022-07-23T10:09:40;99906.38;;;47.59;15.85
28683;BME280;15862;43.062;25.626;2022-07-23T10:12:12;99905.47;;;47.86;14.88
28683;BME280;15862;43.062;25.626;2022-07-23T10:14:49;99896.06;;;48.78;14.93
28683;BME280;15862;43.062;25.626;2022-07-23T10:17:16;99903.56;;;49.22;14.33
28683;BME280;15862;43.062;25.626;2022-07-23T10:19:42;99884.84;;;48.86;14.05
28683;BME280;15862;43.062;25.626;2022-07-23T10:22:19;99889.41;;;49.20;14.82
28683;BME280;15862;43.062;25.626;2022-07-23T10:30:43;99889.75;;;49.18;15.65
28683;BME280;15862;43.062;25.626;2022-07-23T10:33:44;99875.47;;;48.68;16.17
28683;BME280;15862;43.062;25.626;2022-07-23T10:36:36;99870.50;;;48.77;15.96
28683;BME280;15862;43.062;25.626;2022-07-23T10:39:10;99869.59;;;47.94;16.10
28683;BME280;15862;43.062;25.626;2022-07-23T10:41:40;99858.13;;;48.64;14.82
28683;BME280;15862;43.062;25.626;2022-07-23T10:46:54;99852.91;;;50.30;13.70
28683;BME280;15862;43.062;25.626;2022-07-23T10:49:36;99849.84;;;50.05;14.84
28683;BME280;15862;43.062;25.626;2022-07-23T10:57:13;99841.34;;;49.14;15.37
28683;BME280;15862;43.062;25.626;2022-07-23T11:02:50;99843.13;;;48.81;15.63
28683;BME280;15862;43.062;25.626;2022-07-23T11:05:18;99837.28;;;49.53;15.13
28683;BME280;15862;43.062;25.626;2022-07-23T11:08:17;99830.59;;;50.09;15.27
28683;BME280;15862;43.062;25.626;2022-07-23T11:13:45;99834.78;;;50.62;14.91
28683;BME280;15862;43.062;25.626;2022-07-23T11:16:16;99829.19;;;49.89;14.76
28683;BME280;15862;43.062;25.626;2022-07-23T11:24:10;99817.28;;;44.63;17.45
28683;BME280;15862;43.062;25.626;2022-07-23T11:26:58;99817.78;;;45.96;16.72
28683;BME280;15862;43.062;25.626;2022-07-23T11:32:11;99813.44;;;48.07;15.85
28683;BME280;15862;43.062;25.626;2022-07-23T11:34:45;99821.94;;;48.02;15.53
28683;BME280;15862;43.062;25.626;2022-07-23T11:39:58;99816.78;;;47.32;16.17
28683;BME280;15862;43.062;25.626;2022-07-23T11:42:23;99808.16;;;47.30;16.03
28683;BME280;15862;43.062;25.626;2022-07-23T11:44:50;99804.97;;;48.15;15.30
28683;BME280;15862;43.062;25.626;2022-07-23T11:47:22;99805.31;;;48.52;15.47
28683;BME280;15862;43.062;25.626;2022-07-23T11:49:56;99801.13;;;48.39;14.95
28683;BME280;15862;43.062;25.626;2022-07-23T11:52:23;99810.72;;;48.67;15.33
28683;BME280;15862;43.062;25.626;2022-07-23T11:54:57;99807.81;;;46.85;15.15
28683;BME280;15862;43.062;25.626;2022-07-23T11:57:29;99804.97;;;45.61;15.79
28683;BME280;15862;43.062;25.626;2022-07-23T12:00:00;99796.44;;;46.01;15.78
28683;BME280;15862;43.062;25.626;2022-07-23T12:02:26;99792.59;;;45.90;15.72
28683;BME280;15862;43.062;25.626;2022-07-23T12:04:53;99787.72;;;46.50;15.68
28683;BME280;15862;43.062;25.626;2022-07-23T12:09:56;99797.25;;;47.49;15.39
28683;BME280;15862;43.062;25.626;2022-07-23T12:12:22;99793.44;;;48.25;14.62
28683;BME280;15862;43.062;25.626;2022-07-23T12:14:57;99793.34;;;48.63;14.23
28683;BME280;15862;43.062;25.626;2022-07-23T12:17:31;99784.72;;;49.06;14.31
28683;BME280;15862;43.062;25.626;2022-07-23T12:19:58;99787.91;;;48.86;15.03
28683;BME280;15862;43.062;25.626;2022-07-23T12:22:25;99776.53;;;48.46;14.80
28683;BME280;15862;43.062;25.626;2022-07-23T12:24:59;99777.34;;;49.13;14.31
28683;BME280;15862;43.062;25.626;2022-07-23T12:27:26;99778.25;;;48.73;14.56
28683;BME280;15862;43.062;25.626;2022-07-23T12:29:52;99772.84;;;49.02;13.67
28683;BME280;15862;43.062;25.626;2022-07-23T12:35:10;99770.00;;;48.12;14.54
28683;BME280;15862;43.062;25.626;2022-07-23T12:37:38;99767.19;;;48.09;14.54
28683;BME280;15862;43.062;25.626;2022-07-23T12:42:49;99765.38;;;47.60;14.71
28683;BME280;15862;43.062;25.626;2022-07-23T12:45:16;99759.31;;;47.70;14.84
28683;BME280;15862;43.062;25.626;2022-07-23T12:48:03;99748.00;;;47.71;15.00
28683;BME280;15862;43.062;25.626;2022-07-23T12:53:43;99752.56;;;47.83;15.11
28683;BME280;15862;43.062;25.626;2022-07-23T12:58:55;99743.09;;;46.50;17.04
28683;BME280;15862;43.062;25.626;2022-07-23T13:04:16;99739.66;;;46.68;15.29
28683;BME280;15862;43.062;25.626;2022-07-23T13:06:55;99746.53;;;47.58;15.03
28683;BME280;15862;43.062;25.626;2022-07-23T13:09:26;99740.13;;;47.35;14.62
28683;BME280;15862;43.062;25.626;2022-07-23T13:11:53;99741.38;;;47.38;15.07
28683;BME280;15862;43.062;25.626;2022-07-23T13:14:20;99715.16;;;47.22;15.19
28683;BME280;15862;43.062;25.626;2022-07-23T13:16:46;99729.69;;;45.90;15.56
28683;BME280;15862;43.062;25.626;2022-07-23T13:19:12;99724.63;;;45.26;16.04
28683;BME280;15862;43.062;25.626;2022-07-23T13:21:39;99733.78;;;45.69;16.14
28683;BME280;15862;43.062;25.626;2022-07-23T13:24:05;99728.41;;;45.33;15.91
28683;BME280;15862;43.062;25.626;2022-07-23T13:26:30;99729.75;;;44.68;16.83
28683;BME280;15862;43.062;25.626;2022-07-23T13:28:56;99726.25;;;44.35;16.27
28683;BME280;15862;43.062;25.626;2022-07-23T13:31:21;99722.94;;;44.62;16.42
28683;BME280;15862;43.062;25.626;2022-07-23T13:33:47;99725.66;;;44.62;16.32
28683;BME280;15862;43.062;25.626;2022-07-23T13:36:13;99730.09;;;44.34;16.27
28683;BME280;15862;43.062;25.626;2022-07-23T13:38:38;99719.66;;;44.03;16.57
28683;BME280;15862;43.062;25.626;2022-07-23T13:41:04;99718.75;;;43.79;17.04